Time;durP1;ratioP1;P1;durP2;ratioP2;P2;SDS_P1;SDS_P2;PMS_P1;PMS_P2;Temp;Humidity;BMP_temperature;BMP_pressure;BME280_temperature;BME280_humidity;BME280_pressure;Samples;Min_cycle;Max_cycle;Signal;HPM_P1;HPM_P2
2022/10/13 00:02:11;;;;;;;20.40;10.13;;;;;;;;;;4948280;28;20459;-67
2022/10/13 00:04:37;;;;;;;21.75;10.18;;;;;;;;;;4948066;28;20472;-67
2022/10/13 00:07:02;;;;;;;26.40;11.80;;;;;;;;;;4948182;28;20369;-67
2022/10/13 00:09:27;;;;;;;21.65;9.32;;;;;;;;;;4931706;28;20504;-67
2022/10/13 00:11:56;;;;;;;17.88;9.27;;;;;;;;;;4930299;28;20519;-67
2022/10/13 00:14:21;;;;;;;27.67;9.95;;;;;;;;;;4948808;28;20353;-67
2022/10/13 00:16:47;;;;;;;18.42;9.77;;;;;;;;;;4947987;28;20029;-67
2022/10/13 00:19:12;;;;;;;22.33;9.77;;;;;;;;;;4951254;28;20399;-67
2022/10/13 00:21:38;;;;;;;21.77;9.88;;;;;;;;;;4951822;28;20407;-67
2022/10/13 00:24:03;;;;;;;16.70;9.27;;;;;;;;;;4951781;28;20326;-67
2022/10/13 00:26:28;;;;;;;18.83;8.80;;;;;;;;;;4951610;28;20440;-67
2022/10/13 00:28:55;;;;;;;18.95;7.63;;;;;;;;;;4933929;28;20502;-67
2022/10/13 00:31:26;;;;;;;18.88;8.93;;;;;;;;;;4933986;28;20423;-67
2022/10/13 00:33:51;;;;;;;19.38;9.02;;;;;;;;;;4951610;28;20345;-67
2022/10/13 00:36:18;;;;;;;18.17;9.13;;;;;;;;;;4934527;28;20344;-68
2022/10/13 00:38:43;;;;;;;17.95;8.27;;;;;;;;;;4933755;28;20399;-67
2022/10/13 00:41:09;;;;;;;20.00;8.25;;;;;;;;;;4952010;28;20337;-67
2022/10/13 00:43:48;;;;;;;15.18;7.80;;;;;;;;;;4951060;28;20453;-67
2022/10/13 00:46:14;;;;;;;15.02;8.05;;;;;;;;;;4933886;28;20455;-67
2022/10/13 00:48:40;;;;;;;18.98;8.07;;;;;;;;;;4951591;28;20436;-67
2022/10/13 00:51:07;;;;;;;15.43;8.35;;;;;;;;;;4933696;28;20384;-67
2022/10/13 00:53:34;;;;;;;16.77;8.00;;;;;;;;;;4933478;28;20456;-67
2022/10/13 00:56:00;;;;;;;19.23;8.45;;;;;;;;;;4951219;28;20048;-67
2022/10/13 00:58:30;;;;;;;18.95;8.45;;;;;;;;;;4933408;28;20030;-67
2022/10/13 01:00:56;;;;;;;19.75;7.97;;;;;;;;;;4933727;28;20337;-67
2022/10/13 01:03:21;;;;;;;16.77;8.00;;;;;;;;;;4952511;28;20353;-67
2022/10/13 01:05:47;;;;;;;18.42;7.53;;;;;;;;;;4953381;28;20375;-67
2022/10/13 01:08:13;;;;;;;15.55;7.35;;;;;;;;;;4952528;28;20473;-67
2022/10/13 01:11:08;;;;;;;16.48;7.13;;;;;;;;;;4972051;28;20309;-67
2022/10/13 01:13:38;;;;;;;16.15;7.25;;;;;;;;;;4952759;28;20348;-67
2022/10/13 01:16:14;;;;;;;13.75;7.43;;;;;;;;;;4952581;28;20415;-67
2022/10/13 01:19:05;;;;;;;11.48;6.60;;;;;;;;;;4952501;28;20437;-67
2022/10/13 01:22:06;;;;;;;15.70;6.85;;;;;;;;;;4952387;28;20432;-67
2022/10/13 01:24:40;;;;;;;15.20;7.13;;;;;;;;;;4966619;28;20053;-67
2022/10/13 01:27:27;;;;;;;19.48;7.05;;;;;;;;;;4970058;28;20471;-67
2022/10/13 01:30:08;;;;;;;14.13;6.70;;;;;;;;;;4971382;28;20498;-67
2022/10/13 01:32:40;;;;;;;13.88;6.72;;;;;;;;;;4970071;28;20376;-68
2022/10/13 01:35:12;;;;;;;13.65;7.00;;;;;;;;;;4969990;28;20099;-67
2022/10/13 01:37:43;;;;;;;12.68;7.10;;;;;;;;;;4952045;28;20411;-67
2022/10/13 01:40:15;;;;;;;12.75;6.57;;;;;;;;;;4970414;28;20429;-67
2022/10/13 01:43:06;;;;;;;15.27;7.43;;;;;;;;;;4952864;28;20133;-67
2022/10/13 01:45:48;;;;;;;15.13;7.32;;;;;;;;;;4945299;28;20333;-67
2022/10/13 01:48:15;;;;;;;13.95;6.85;;;;;;;;;;4970155;28;20490;-67
2022/10/13 01:50:41;;;;;;;15.63;6.53;;;;;;;;;;4952724;28;20487;-67
2022/10/13 01:53:07;;;;;;;13.38;6.03;;;;;;;;;;4969849;28;20353;-67
2022/10/13 01:55:32;;;;;;;15.93;6.70;;;;;;;;;;4951915;28;20033;-67
2022/10/13 01:57:58;;;;;;;14.93;7.78;;;;;;;;;;4969548;28;20343;-67
2022/10/13 02:00:24;;;;;;;12.32;6.93;;;;;;;;;;4970198;28;20479;-67
2022/10/13 02:02:57;;;;;;;12.90;6.22;;;;;;;;;;4951676;28;20484;-67
2022/10/13 02:05:24;;;;;;;13.68;6.72;;;;;;;;;;4951674;28;20383;-67
2022/10/13 02:07:57;;;;;;;11.63;5.90;;;;;;;;;;4951394;28;20490;-67
2022/10/13 02:10:42;;;;;;;17.02;6.72;;;;;;;;;;4969332;28;20393;-67
2022/10/13 02:13:10;;;;;;;14.90;6.00;;;;;;;;;;4969344;28;20044;-67
2022/10/13 02:15:50;;;;;;;11.25;6.00;;;;;;;;;;4951449;28;20037;-67
2022/10/13 02:18:19;;;;;;;17.48;7.28;;;;;;;;;;4951942;28;20327;-67
2022/10/13 02:20:45;;;;;;;11.95;5.97;;;;;;;;;;4969215;28;20044;-67
2022/10/13 02:23:15;;;;;;;10.48;5.90;;;;;;;;;;4951227;28;20437;-67
2022/10/13 02:25:41;;;;;;;18.15;5.93;;;;;;;;;;4968661;28;20064;-67
2022/10/13 02:28:07;;;;;;;12.52;6.43;;;;;;;;;;4951213;28;20431;-67
2022/10/13 02:30:32;;;;;;;10.70;5.65;;;;;;;;;;4951705;28;20448;-67
2022/10/13 02:32:59;;;;;;;12.65;5.70;;;;;;;;;;4951486;28;20419;-67
2022/10/13 02:35:25;;;;;;;10.30;5.78;;;;;;;;;;4951360;28;20416;-67
2022/10/13 02:37:50;;;;;;;11.90;5.50;;;;;;;;;;4950940;28;20376;-67
2022/10/13 02:40:16;;;;;;;11.00;5.72;;;;;;;;;;4968835;28;20025;-67
2022/10/13 02:42:41;;;;;;;12.00;5.93;;;;;;;;;;4968202;28;20301;-67
2022/10/13 02:45:07;;;;;;;13.45;6.03;;;;;;;;;;4968887;28;20447;-67
2022/10/13 02:47:32;;;;;;;8.75;5.13;;;;;;;;;;4968424;28;20486;-68
2022/10/13 02:49:58;;;;;;;13.77;6.07;;;;;;;;;;4968464;28;20345;-67
2022/10/13 02:52:23;;;;;;;8.52;4.60;;;;;;;;;;4968985;28;20105;-67
2022/10/13 02:54:48;;;;;;;16.50;5.55;;;;;;;;;;4968747;28;20568;-67
2022/10/13 02:57:14;;;;;;;11.00;5.25;;;;;;;;;;4968394;28;20380;-67
2022/10/13 02:59:39;;;;;;;9.52;4.63;;;;;;;;;;4969523;28;20124;-67
2022/10/13 03:02:04;;;;;;;10.43;5.78;;;;;;;;;;4968431;28;20414;-67
2022/10/13 03:04:30;;;;;;;10.82;5.55;;;;;;;;;;4968348;28;20416;-67
2022/10/13 03:06:55;;;;;;;9.70;5.45;;;;;;;;;;4968125;28;20443;-67
2022/10/13 03:09:20;;;;;;;12.40;5.80;;;;;;;;;;4968418;28;20499;-67
2022/10/13 03:11:46;;;;;;;10.07;5.68;;;;;;;;;;4950520;28;20523;-67
2022/10/13 03:14:11;;;;;;;11.90;5.75;;;;;;;;;;4969627;28;20413;-67
2022/10/13 03:16:37;;;;;;;13.70;5.80;;;;;;;;;;4950883;28;20025;-67
2022/10/13 03:19:02;;;;;;;14.40;5.78;;;;;;;;;;4968158;28;20484;-67
2022/10/13 03:21:27;;;;;;;15.23;5.10;;;;;;;;;;4967852;28;20446;-67
2022/10/13 03:23:53;;;;;;;13.43;5.35;;;;;;;;;;4968381;28;20140;-67
2022/10/13 03:26:18;;;;;;;8.57;5.47;;;;;;;;;;4967395;28;20046;-67
2022/10/13 03:28:48;;;;;;;11.80;5.80;;;;;;;;;;4950159;28;20503;-67
2022/10/13 03:31:13;;;;;;;10.88;5.22;;;;;;;;;;4969416;28;20033;-67
2022/10/13 03:33:39;;;;;;;12.35;7.07;;;;;;;;;;4967990;28;20471;-67
2022/10/13 03:36:04;;;;;;;13.60;5.43;;;;;;;;;;4967929;28;20449;-67
2022/10/13 03:38:31;;;;;;;11.27;5.65;;;;;;;;;;4950286;28;20069;-67
2022/10/13 03:40:56;;;;;;;15.40;5.88;;;;;;;;;;4967789;28;20464;-67
2022/10/13 03:43:22;;;;;;;10.07;4.93;;;;;;;;;;4950076;28;20448;-67
2022/10/13 03:45:58;;;;;;;12.35;5.22;;;;;;;;;;4949886;28;20460;-67
2022/10/13 03:48:24;;;;;;;13.70;5.70;;;;;;;;;;4967838;28;20129;-67
2022/10/13 03:50:49;;;;;;;7.88;4.78;;;;;;;;;;4967802;28;20432;-67
2022/10/13 03:53:15;;;;;;;10.50;5.07;;;;;;;;;;4949995;28;20052;-67
2022/10/13 03:55:40;;;;;;;9.95;4.60;;;;;;;;;;4971576;28;20044;-67
2022/10/13 03:58:05;;;;;;;10.88;5.78;;;;;;;;;;4971614;28;20455;-67
2022/10/13 04:00:31;;;;;;;13.70;5.18;;;;;;;;;;4971514;28;20466;-67
2022/10/13 04:02:56;;;;;;;11.52;5.72;;;;;;;;;;4954100;28;20397;-67
2022/10/13 04:05:21;;;;;;;10.68;4.85;;;;;;;;;;4971703;28;20501;-67
2022/10/13 04:07:47;;;;;;;8.55;5.05;;;;;;;;;;4972112;28;20448;-67
2022/10/13 04:10:12;;;;;;;8.95;5.13;;;;;;;;;;4972106;28;20432;-67
2022/10/13 04:12:37;;;;;;;9.88;4.82;;;;;;;;;;4953410;28;20591;-67
2022/10/13 04:15:03;;;;;;;8.32;5.22;;;;;;;;;;4971538;28;20029;-67
2022/10/13 04:17:28;;;;;;;11.38;5.47;;;;;;;;;;4971273;28;20444;-67
2022/10/13 04:19:54;;;;;;;12.02;5.53;;;;;;;;;;4972176;28;20029;-67
2022/10/13 04:22:19;;;;;;;10.35;5.68;;;;;;;;;;4972293;28;20286;-67
2022/10/13 04:24:44;;;;;;;19.08;5.22;;;;;;;;;;4970841;28;20440;-67
2022/10/13 04:27:10;;;;;;;10.52;5.95;;;;;;;;;;4953566;28;20410;-67
2022/10/13 04:29:35;;;;;;;10.13;5.63;;;;;;;;;;4971075;28;20391;-67
2022/10/13 04:32:00;;;;;;;10.48;5.63;;;;;;;;;;4971148;28;20026;-67
2022/10/13 04:34:26;;;;;;;16.42;5.78;;;;;;;;;;4971276;28;20379;-67
2022/10/13 04:36:51;;;;;;;12.32;5.47;;;;;;;;;;4971137;28;20048;-67
2022/10/13 04:39:17;;;;;;;12.77;5.15;;;;;;;;;;4953144;28;20026;-67
2022/10/13 04:41:43;;;;;;;16.05;5.55;;;;;;;;;;4971140;28;20447;-67
2022/10/13 04:44:08;;;;;;;11.85;5.50;;;;;;;;;;4972314;28;20412;-67
2022/10/13 04:46:33;;;;;;;12.02;6.00;;;;;;;;;;4970660;28;20026;-67
2022/10/13 04:48:59;;;;;;;10.48;5.40;;;;;;;;;;4952980;28;20029;-67
2022/10/13 04:51:25;;;;;;;9.48;5.15;;;;;;;;;;4970968;28;20379;-67
2022/10/13 04:53:55;;;;;;;12.20;5.57;;;;;;;;;;4970741;28;20322;-67
2022/10/13 04:56:20;;;;;;;10.20;5.40;;;;;;;;;;4952977;28;20440;-67
2022/10/13 04:58:45;;;;;;;16.88;6.20;;;;;;;;;;4971207;28;20363;-67
2022/10/13 05:01:17;;;;;;;14.75;5.68;;;;;;;;;;4971109;28;20363;-67
2022/10/13 05:03:42;;;;;;;17.15;5.40;;;;;;;;;;4970674;28;20494;-67
2022/10/13 05:06:38;;;;;;;12.27;5.55;;;;;;;;;;4969382;28;20456;-67
2022/10/13 05:09:04;;;;;;;10.35;5.25;;;;;;;;;;4963653;28;20416;-67
2022/10/13 05:11:29;;;;;;;10.68;5.07;;;;;;;;;;4990233;28;20187;-67
2022/10/13 05:13:56;;;;;;;10.30;5.47;;;;;;;;;;4972053;28;20379;-67
2022/10/13 05:16:22;;;;;;;10.85;4.72;;;;;;;;;;4972190;28;20433;-67
2022/10/13 05:18:52;;;;;;;9.73;5.15;;;;;;;;;;4990223;28;20094;-67
2022/10/13 05:21:21;;;;;;;11.65;5.35;;;;;;;;;;4990542;28;20459;-67
2022/10/13 05:23:47;;;;;;;10.40;5.40;;;;;;;;;;4972023;28;20574;-67
2022/10/13 05:26:15;;;;;;;12.90;5.65;;;;;;;;;;4971515;28;20602;-67
2022/10/13 05:28:40;;;;;;;9.75;5.20;;;;;;;;;;4971873;28;20317;-67
2022/10/13 05:31:16;;;;;;;13.18;5.22;;;;;;;;;;4991946;28;20040;-67
2022/10/13 05:33:42;;;;;;;8.98;5.00;;;;;;;;;;4972329;28;20469;-67
2022/10/13 05:36:19;;;;;;;9.35;5.10;;;;;;;;;;4990479;28;20504;-67
2022/10/13 05:38:44;;;;;;;10.35;5.13;;;;;;;;;;4971776;28;20029;-67
2022/10/13 05:41:13;;;;;;;9.45;5.10;;;;;;;;;;4971540;28;20517;-67
2022/10/13 05:43:39;;;;;;;15.70;4.82;;;;;;;;;;4990812;28;20352;-67
2022/10/13 05:46:05;;;;;;;9.52;5.25;;;;;;;;;;4971638;28;20368;-67
2022/10/13 05:48:31;;;;;;;14.07;4.50;;;;;;;;;;4989435;28;20368;-67
2022/10/13 05:50:59;;;;;;;12.23;4.93;;;;;;;;;;4972287;28;20436;-67
2022/10/13 05:53:27;;;;;;;9.65;4.60;;;;;;;;;;4990363;28;20336;-67
2022/10/13 05:55:53;;;;;;;9.10;4.38;;;;;;;;;;4971637;28;20036;-67
2022/10/13 05:58:19;;;;;;;12.20;4.70;;;;;;;;;;4971994;28;20343;-67
2022/10/13 06:00:44;;;;;;;9.93;5.05;;;;;;;;;;4989216;28;20344;-67
2022/10/13 06:03:13;;;;;;;11.38;5.10;;;;;;;;;;4971153;28;20115;-67
2022/10/13 06:05:39;;;;;;;10.63;5.47;;;;;;;;;;4989685;28;20337;-67
2022/10/13 06:08:05;;;;;;;13.02;5.10;;;;;;;;;;4971045;28;20348;-67
2022/10/13 06:10:30;;;;;;;10.55;5.47;;;;;;;;;;4971159;28;20463;-67
2022/10/13 06:12:56;;;;;;;11.15;4.47;;;;;;;;;;4988959;28;20033;-67
2022/10/13 06:15:21;;;;;;;13.25;5.25;;;;;;;;;;4990961;28;20450;-67
2022/10/13 06:17:46;;;;;;;8.95;4.60;;;;;;;;;;4988558;28;20355;-68
2022/10/13 06:20:12;;;;;;;10.05;5.25;;;;;;;;;;4988805;28;21084;-67
2022/10/13 06:22:37;;;;;;;10.88;5.00;;;;;;;;;;4988928;28;20366;-67
2022/10/13 06:25:05;;;;;;;7.75;4.10;;;;;;;;;;4970473;28;20057;-67
2022/10/13 06:27:30;;;;;;;7.00;4.40;;;;;;;;;;4970570;28;20029;-67
2022/10/13 06:29:56;;;;;;;9.82;4.45;;;;;;;;;;4988586;28;20085;-67
2022/10/13 06:32:22;;;;;;;14.63;4.88;;;;;;;;;;4989771;28;20406;-67
2022/10/13 06:34:47;;;;;;;7.10;3.80;;;;;;;;;;4988622;28;20025;-67
2022/10/13 06:37:13;;;;;;;9.57;4.55;;;;;;;;;;4970804;28;20056;-67
2022/10/13 06:39:38;;;;;;;8.88;5.03;;;;;;;;;;4988877;28;20509;-67
2022/10/13 06:42:03;;;;;;;10.75;3.97;;;;;;;;;;4988284;28;20428;-67
2022/10/13 06:44:30;;;;;;;9.73;4.18;;;;;;;;;;4988343;28;20444;-67
2022/10/13 06:46:56;;;;;;;9.68;4.13;;;;;;;;;;4970296;28;20436;-68
2022/10/13 06:49:22;;;;;;;11.02;3.88;;;;;;;;;;4988627;28;20451;-67
2022/10/13 06:51:48;;;;;;;8.80;4.03;;;;;;;;;;4988212;28;20067;-67
2022/10/13 06:54:13;;;;;;;11.75;4.30;;;;;;;;;;4988313;28;20547;-67
2022/10/13 06:56:39;;;;;;;8.10;4.15;;;;;;;;;;4988617;28;20367;-67
2022/10/13 06:59:04;;;;;;;9.48;4.18;;;;;;;;;;4988038;28;20501;-67
2022/10/13 07:01:29;;;;;;;6.28;3.78;;;;;;;;;;4988626;28;20428;-67
2022/10/13 07:03:56;;;;;;;14.68;4.82;;;;;;;;;;4988123;28;20458;-67
2022/10/13 07:06:21;;;;;;;7.65;4.35;;;;;;;;;;4987935;28;20111;-67
2022/10/13 07:08:46;;;;;;;11.15;3.97;;;;;;;;;;4969938;28;20432;-67
2022/10/13 07:11:13;;;;;;;8.73;3.67;;;;;;;;;;4988338;28;20158;-67
2022/10/13 07:13:39;;;;;;;5.78;3.53;;;;;;;;;;4988468;28;20440;-67
2022/10/13 07:16:05;;;;;;;5.05;3.00;;;;;;;;;;4987886;28;20508;-67
2022/10/13 07:18:31;;;;;;;5.50;3.30;;;;;;;;;;4970583;28;20434;-67
2022/10/13 07:20:59;;;;;;;8.00;3.40;;;;;;;;;;4989339;28;20447;-68
2022/10/13 07:23:24;;;;;;;8.02;3.75;;;;;;;;;;4986340;28;20351;-67
2022/10/13 07:25:56;;;;;;;8.85;4.00;;;;;;;;;;3910183;28;10021757;-67
2022/10/13 07:28:25;;;;;;;8.27;3.70;;;;;;;;;;3364634;28;10001709;-67
2022/10/13 07:30:50;;;;;;;8.27;3.88;;;;;;;;;;4988153;28;20455;-67
2022/10/13 07:33:15;;;;;;;12.88;3.08;;;;;;;;;;4987427;28;20432;-67
2022/10/13 07:35:41;;;;;;;9.32;3.45;;;;;;;;;;4987582;28;20386;-67
2022/10/13 07:38:06;;;;;;;7.57;3.40;;;;;;;;;;4989506;28;20331;-67
2022/10/13 07:40:32;;;;;;;5.32;3.40;;;;;;;;;;4987519;28;20423;-67
2022/10/13 07:42:57;;;;;;;6.20;2.80;;;;;;;;;;4987630;28;20095;-66
2022/10/13 07:45:23;;;;;;;8.48;3.20;;;;;;;;;;4989310;28;20420;-67
2022/10/13 07:47:48;;;;;;;6.25;3.22;;;;;;;;;;4987345;28;20431;-67
2022/10/13 07:50:14;;;;;;;7.38;3.47;;;;;;;;;;4987646;28;20498;-67
2022/10/13 07:52:39;;;;;;;10.18;3.65;;;;;;;;;;4987384;28;20490;-66
2022/10/13 07:55:05;;;;;;;4.80;3.13;;;;;;;;;;4987469;28;20355;-67
2022/10/13 07:57:31;;;;;;;6.03;3.10;;;;;;;;;;4987242;28;20029;-67
2022/10/13 07:59:56;;;;;;;9.48;3.70;;;;;;;;;;4987887;28;20029;-67
2022/10/13 08:02:21;;;;;;;12.13;3.13;;;;;;;;;;4988265;28;20112;-67
2022/10/13 08:04:47;;;;;;;6.65;3.42;;;;;;;;;;4987292;28;20432;-67
2022/10/13 08:07:12;;;;;;;5.63;2.65;;;;;;;;;;4987061;28;20055;-66
2022/10/13 08:09:38;;;;;;;5.95;3.05;;;;;;;;;;4988259;28;20052;-67
2022/10/13 08:12:03;;;;;;;6.25;3.10;;;;;;;;;;4987135;28;20021;-67
2022/10/13 08:14:29;;;;;;;8.40;3.20;;;;;;;;;;4987934;28;20431;-67
2022/10/13 08:16:56;;;;;;;6.10;2.63;;;;;;;;;;4969281;28;20370;-67
2022/10/13 08:19:22;;;;;;;7.00;3.88;;;;;;;;;;4969116;28;20025;-67
2022/10/13 08:21:48;;;;;;;16.55;4.55;;;;;;;;;;4970491;28;20424;-67
2022/10/13 08:24:15;;;;;;;6.43;3.17;;;;;;;;;;4987168;28;20356;-67
2022/10/13 08:26:41;;;;;;;4.60;2.65;;;;;;;;;;4986688;28;20499;-67
2022/10/13 08:29:07;;;;;;;6.25;2.85;;;;;;;;;;4969085;28;20021;-67
2022/10/13 08:31:33;;;;;;;6.57;3.05;;;;;;;;;;4986906;28;20471;-67
2022/10/13 08:33:58;;;;;;;7.32;2.92;;;;;;;;;;4987981;28;20491;-66
2022/10/13 08:36:24;;;;;;;4.93;3.17;;;;;;;;;;4988257;28;20493;-67
2022/10/13 08:38:49;;;;;;;6.35;3.15;;;;;;;;;;4987022;28;20053;-66
2022/10/13 08:41:44;;;;;;;6.85;3.03;;;;;;;;;;4989916;28;20029;-67
2022/10/13 08:44:15;;;;;;;6.88;2.72;;;;;;;;;;4976262;28;20398;-66
2022/10/13 08:46:48;;;;;;;6.07;2.97;;;;;;;;;;4990367;28;20398;-66
2022/10/13 08:49:15;;;;;;;5.45;2.75;;;;;;;;;;4990674;28;20395;-66
2022/10/13 08:51:41;;;;;;;6.60;2.83;;;;;;;;;;4976364;28;20372;-66
2022/10/13 08:54:06;;;;;;;6.80;2.90;;;;;;;;;;4992170;28;20490;-67
2022/10/13 08:56:33;;;;;;;6.55;2.85;;;;;;;;;;4990565;28;20468;-66
2022/10/13 08:59:00;;;;;;;6.20;2.53;;;;;;;;;;4990406;28;20056;-66
2022/10/13 09:01:31;;;;;;;5.82;2.83;;;;;;;;;;4990177;28;20052;-67
2022/10/13 09:04:12;;;;;;;3.67;2.40;;;;;;;;;;4990663;28;20463;-67
2022/10/13 09:06:51;;;;;;;7.32;2.67;;;;;;;;;;4972097;28;20482;-67
2022/10/13 09:09:16;;;;;;;4.00;2.67;;;;;;;;;;4972378;28;20562;-67
2022/10/13 09:11:44;;;;;;;5.38;3.22;;;;;;;;;;4990476;28;20370;-67
2022/10/13 09:14:43;;;;;;;6.47;3.08;;;;;;;;;;4990038;28;20390;-67
2022/10/13 09:17:23;;;;;;;3.90;2.30;;;;;;;;;;4957120;28;20041;-67
2022/10/13 09:20:14;;;;;;;3.80;2.47;;;;;;;;;;4989982;28;20336;-66
2022/10/13 09:22:40;;;;;;;6.63;2.78;;;;;;;;;;4972760;28;20414;-67
2022/10/13 09:25:05;;;;;;;4.88;2.67;;;;;;;;;;4990149;28;20333;-66
2022/10/13 09:27:45;;;;;;;6.60;2.92;;;;;;;;;;4989694;28;20104;-66
2022/10/13 09:30:37;;;;;;;4.55;2.40;;;;;;;;;;4991955;28;20466;-67
2022/10/13 09:33:11;;;;;;;4.82;2.33;;;;;;;;;;4972446;28;20408;-66
2022/10/13 09:35:37;;;;;;;3.60;2.53;;;;;;;;;;4989816;28;20484;-67
2022/10/13 09:38:04;;;;;;;7.72;3.00;;;;;;;;;;4990587;28;20033;-66
2022/10/13 09:40:32;;;;;;;4.70;2.22;;;;;;;;;;4990204;28;20471;-66
2022/10/13 09:42:59;;;;;;;5.70;2.80;;;;;;;;;;4989567;28;20060;-66
2022/10/13 09:45:25;;;;;;;4.63;2.35;;;;;;;;;;4991565;28;20055;-66
2022/10/13 09:47:52;;;;;;;3.63;2.25;;;;;;;;;;4991391;28;20029;-66
2022/10/13 09:50:20;;;;;;;4.95;2.38;;;;;;;;;;4971562;28;20483;-66
2022/10/13 09:52:46;;;;;;;6.05;2.00;;;;;;;;;;4971699;28;20408;-66
2022/10/13 09:55:30;;;;;;;5.68;2.90;;;;;;;;;;4971485;28;20444;-66
2022/10/13 09:58:18;;;;;;;3.97;1.85;;;;;;;;;;4971246;28;20436;-67
2022/10/13 10:00:44;;;;;;;4.45;2.60;;;;;;;;;;4971480;28;20340;-66
2022/10/13 10:03:15;;;;;;;5.40;2.70;;;;;;;;;;4971347;28;20348;-67
2022/10/13 10:05:52;;;;;;;5.43;2.45;;;;;;;;;;4971647;28;20361;-66
2022/10/13 10:08:33;;;;;;;4.70;2.33;;;;;;;;;;4990124;28;20392;-66
2022/10/13 10:11:01;;;;;;;5.25;2.53;;;;;;;;;;4990237;28;20471;-66
2022/10/13 10:13:26;;;;;;;4.97;2.88;;;;;;;;;;4972436;28;20099;-66
2022/10/13 10:15:53;;;;;;;3.38;1.90;;;;;;;;;;4989331;28;20462;-66
2022/10/13 10:18:31;;;;;;;4.03;2.03;;;;;;;;;;4971055;28;20337;-66
2022/10/13 10:21:13;;;;;;;3.63;2.30;;;;;;;;;;4970806;28;20463;-66
2022/10/13 10:23:44;;;;;;;4.05;2.17;;;;;;;;;;4971087;28;20436;-66
2022/10/13 10:26:13;;;;;;;10.85;2.42;;;;;;;;;;4988516;28;20067;-66
2022/10/13 10:28:46;;;;;;;4.68;2.40;;;;;;;;;;4989693;28;20351;-66
2022/10/13 10:31:33;;;;;;;5.40;2.38;;;;;;;;;;4970572;28;20094;-67
2022/10/13 10:34:19;;;;;;;3.75;1.90;;;;;;;;;;4988696;28;20367;-67
2022/10/13 10:37:05;;;;;;;4.00;2.25;;;;;;;;;;4989986;28;20033;-67
2022/10/13 10:39:36;;;;;;;2.85;1.92;;;;;;;;;;4988446;28;20335;-67
2022/10/13 10:42:07;;;;;;;3.95;2.05;;;;;;;;;;4970391;28;20510;-67
2022/10/13 10:44:38;;;;;;;4.13;2.25;;;;;;;;;;4988623;28;20119;-66
2022/10/13 10:47:06;;;;;;;5.05;2.47;;;;;;;;;;4970474;28;20036;-67
2022/10/13 10:49:38;;;;;;;4.93;2.47;;;;;;;;;;4970368;28;20434;-67
2022/10/13 10:52:10;;;;;;;4.30;2.35;;;;;;;;;;4988449;28;20455;-67
2022/10/13 10:54:48;;;;;;;4.47;2.83;;;;;;;;;;4970231;28;20094;-66
2022/10/13 10:57:46;;;;;;;5.10;2.08;;;;;;;;;;4988137;28;20344;-67
2022/10/13 11:00:15;;;;;;;3.97;2.20;;;;;;;;;;4970485;28;20485;-66
2022/10/13 11:02:45;;;;;;;3.75;2.13;;;;;;;;;;4988076;28;20052;-67
2022/10/13 11:05:11;;;;;;;2.83;2.22;;;;;;;;;;4987734;28;20041;-66
2022/10/13 11:07:43;;;;;;;5.32;2.45;;;;;;;;;;4988293;28;20047;-67
2022/10/13 11:10:17;;;;;;;3.53;2.03;;;;;;;;;;4990221;28;20431;-66
2022/10/13 11:13:06;;;;;;;4.97;1.98;;;;;;;;;;4988932;28;20498;-66
2022/10/13 11:15:39;;;;;;;;;;;;;;;;;;4988704;28;20455;-66
2022/10/13 11:18:43;;;;;;;5.82;2.13;;;;;;;;;;4987908;28;21919;-66
2022/10/13 11:21:08;;;;;;;3.22;2.30;;;;;;;;;;4964413;28;20456;-66
2022/10/13 11:23:33;;;;;;;2.78;1.63;;;;;;;;;;4967668;28;20436;-66
2022/10/13 11:26:19;;;;;;;4.78;2.17;;;;;;;;;;4981337;28;20535;-67
2022/10/13 11:28:46;;;;;;;3.58;2.15;;;;;;;;;;4987923;28;20399;-67
2022/10/13 11:31:11;;;;;;;3.70;1.70;;;;;;;;;;4987906;28;20392;-66
2022/10/13 11:33:39;;;;;;;4.63;2.08;;;;;;;;;;4987662;28;20459;-66
2022/10/13 11:36:42;;;;;;;4.60;2.42;;;;;;;;;;4987403;28;20037;-66
2022/10/13 11:39:24;;;;;;;6.95;2.60;;;;;;;;;;4987436;28;20356;-66
2022/10/13 11:42:11;;;;;;;4.13;2.05;;;;;;;;;;4988060;28;20432;-67
2022/10/13 11:44:56;;;;;;;3.75;2.28;;;;;;;;;;4987501;28;20041;-66
2022/10/13 11:47:43;;;;;;;5.65;1.80;;;;;;;;;;4969359;28;20418;-67
2022/10/13 11:50:39;;;;;;;2.83;1.90;;;;;;;;;;4987455;28;20347;-66
2022/10/13 11:53:22;;;;;;;2.85;2.00;;;;;;;;;;4987351;28;20395;-66
2022/10/13 11:55:55;;;;;;;5.95;2.35;;;;;;;;;;4987451;28;20470;-68
2022/10/13 11:58:26;;;;;;;3.35;2.03;;;;;;;;;;4987260;28;20474;-66
2022/10/13 12:01:03;;;;;;;4.10;2.28;;;;;;;;;;4987329;28;20474;-67
2022/10/13 12:03:29;;;;;;;3.17;1.88;;;;;;;;;;4987655;28;20435;-66
2022/10/13 12:06:04;;;;;;;4.15;2.20;;;;;;;;;;4969141;28;20387;-66
2022/10/13 12:08:31;;;;;;;3.22;1.90;;;;;;;;;;4987324;28;20325;-66
2022/10/13 12:10:58;;;;;;;4.75;2.30;;;;;;;;;;4987641;28;20112;-66
2022/10/13 12:13:26;;;;;;;3.67;1.92;;;;;;;;;;4969285;28;20463;-66
2022/10/13 12:16:05;;;;;;;3.60;2.13;;;;;;;;;;4991721;28;20511;-66
2022/10/13 12:18:38;;;;;;;5.35;2.45;;;;;;;;;;4973462;28;20456;-66
2022/10/13 12:21:10;;;;;;;3.30;1.95;;;;;;;;;;4990991;28;20439;-66
2022/10/13 12:23:35;;;;;;;4.22;2.35;;;;;;;;;;4991138;28;20052;-66
2022/10/13 12:26:01;;;;;;;3.33;2.00;;;;;;;;;;4990721;28;20459;-66
2022/10/13 12:28:44;;;;;;;4.55;2.40;;;;;;;;;;4972966;28;20060;-66
2022/10/13 12:31:17;;;;;;;2.83;1.83;;;;;;;;;;4956992;28;20336;-66
2022/10/13 12:33:42;;;;;;;4.05;2.25;;;;;;;;;;4991728;28;20420;-66
2022/10/13 12:36:19;;;;;;;4.13;2.00;;;;;;;;;;4992135;28;20446;-67
2022/10/13 12:38:48;;;;;;;4.55;2.05;;;;;;;;;;4990877;28;20436;-66
2022/10/13 12:41:17;;;;;;;6.32;2.50;;;;;;;;;;4972766;28;20415;-66
2022/10/13 12:43:42;;;;;;;2.65;1.80;;;;;;;;;;4972978;28;20403;-66
2022/10/13 12:46:08;;;;;;;3.03;1.92;;;;;;;;;;4990494;28;20479;-66
2022/10/13 12:48:35;;;;;;;3.25;2.10;;;;;;;;;;4972763;28;20075;-66
2022/10/13 12:51:12;;;;;;;9.73;2.20;;;;;;;;;;4991169;28;20480;-66
2022/10/13 12:53:38;;;;;;;6.43;1.98;;;;;;;;;;4972440;28;20454;-66
2022/10/13 12:56:04;;;;;;;2.50;2.00;;;;;;;;;;4972846;28;20391;-66
2022/10/13 12:58:31;;;;;;;4.43;2.00;;;;;;;;;;4990251;28;20375;-66
2022/10/13 13:01:05;;;;;;;4.50;1.85;;;;;;;;;;4990406;28;20443;-66
2022/10/13 13:03:31;;;;;;;3.22;1.90;;;;;;;;;;4972600;28;20348;-66
2022/10/13 13:06:13;;;;;;;4.45;2.03;;;;;;;;;;4972483;28;20344;-66
2022/10/13 13:08:40;;;;;;;4.40;2.15;;;;;;;;;;4990450;28;20032;-66
2022/10/13 13:11:15;;;;;;;4.70;2.10;;;;;;;;;;4972859;28;20418;-66
2022/10/13 13:13:41;;;;;;;3.83;2.10;;;;;;;;;;4972147;28;20051;-66
2022/10/13 13:16:16;;;;;;;2.33;1.73;;;;;;;;;;4992307;28;20394;-66
2022/10/13 13:18:43;;;;;;;6.40;2.20;;;;;;;;;;4990131;28;20353;-66
2022/10/13 13:21:13;;;;;;;3.33;1.90;;;;;;;;;;4989922;28;20350;-66
2022/10/13 13:23:39;;;;;;;7.32;2.00;;;;;;;;;;4990430;28;20327;-66
2022/10/13 13:26:19;;;;;;;2.45;1.63;;;;;;;;;;4988766;28;20045;-66
2022/10/13 13:28:46;;;;;;;4.07;1.85;;;;;;;;;;4981935;28;20316;-66
2022/10/13 13:31:13;;;;;;;3.78;1.95;;;;;;;;;;4972072;28;20459;-66
2022/10/13 13:33:38;;;;;;;3.22;2.00;;;;;;;;;;4972107;28;20111;-66
2022/10/13 13:36:09;;;;;;;3.83;1.85;;;;;;;;;;4989739;28;20436;-66
2022/10/13 13:38:35;;;;;;;2.60;1.73;;;;;;;;;;4972452;28;20462;-66
2022/10/13 13:41:00;;;;;;;5.47;2.05;;;;;;;;;;4990490;28;20368;-66
2022/10/13 13:43:26;;;;;;;2.63;1.90;;;;;;;;;;4989641;28;20390;-66
2022/10/13 13:45:51;;;;;;;4.10;2.17;;;;;;;;;;4989603;28;20436;-66
2022/10/13 13:48:16;;;;;;;4.55;2.08;;;;;;;;;;4989726;28;20478;-66
2022/10/13 13:50:41;;;;;;;6.45;2.10;;;;;;;;;;4989529;28;20415;-66
2022/10/13 13:53:08;;;;;;;3.35;1.95;;;;;;;;;;4989331;28;20428;-66
2022/10/13 13:55:34;;;;;;;3.83;2.10;;;;;;;;;;4989540;28;20420;-66
2022/10/13 13:57:59;;;;;;;3.75;2.35;;;;;;;;;;4991345;28;20505;-66
2022/10/13 14:00:25;;;;;;;3.03;2.00;;;;;;;;;;4989949;28;20398;-66
2022/10/13 14:02:50;;;;;;;3.20;1.52;;;;;;;;;;4989714;28;20029;-66
2022/10/13 14:05:16;;;;;;;2.72;1.67;;;;;;;;;;4989377;28;20459;-66
2022/10/13 14:07:41;;;;;;;5.88;2.15;;;;;;;;;;4988970;28;20348;-66
2022/10/13 14:10:07;;;;;;;4.93;2.22;;;;;;;;;;4989129;28;20486;-66
2022/10/13 14:12:33;;;;;;;5.13;2.22;;;;;;;;;;4989524;28;20380;-66
2022/10/13 14:14:58;;;;;;;2.65;1.75;;;;;;;;;;4989205;28;20394;-66
2022/10/13 14:17:24;;;;;;;5.15;2.42;;;;;;;;;;4991071;28;20424;-66
2022/10/13 14:19:50;;;;;;;4.85;2.75;;;;;;;;;;4989184;28;20449;-66
2022/10/13 14:22:15;;;;;;;4.35;2.03;;;;;;;;;;4988975;28;20432;-66
2022/10/13 14:24:40;;;;;;;4.30;2.40;;;;;;;;;;4988320;28;20364;-66
2022/10/13 14:27:07;;;;;;;5.75;2.55;;;;;;;;;;4989836;28;20387;-66
2022/10/13 14:29:33;;;;;;;4.40;2.00;;;;;;;;;;4643609;28;10002225;-66
2022/10/13 14:31:58;;;;;;;4.63;2.08;;;;;;;;;;4988859;28;20725;-66
2022/10/13 14:34:24;;;;;;;3.80;2.20;;;;;;;;;;4988848;28;20447;-66
2022/10/13 14:36:49;;;;;;;3.25;2.03;;;;;;;;;;4988417;28;20515;-66
2022/10/13 14:39:15;;;;;;;4.03;2.30;;;;;;;;;;4990138;28;20313;-66
2022/10/13 14:41:40;;;;;;;3.08;2.30;;;;;;;;;;4989995;28;20468;-66
2022/10/13 14:44:05;;;;;;;5.38;2.05;;;;;;;;;;4989307;28;20028;-66
2022/10/13 14:46:31;;;;;;;3.20;2.30;;;;;;;;;;4988451;28;20470;-66
2022/10/13 14:48:57;;;;;;;3.80;1.90;;;;;;;;;;4989024;28;20411;-66
2022/10/13 14:51:23;;;;;;;4.68;2.28;;;;;;;;;;4988183;28;20222;-66